createdAt,value
2022-10-28T00:13:00.159Z,98960.64
2022-10-28T00:15:31.047Z,98958.29
2022-10-28T00:18:01.795Z,98956.02
2022-10-28T00:20:33.862Z,98952.68
2022-10-28T00:23:04.424Z,98951.59
2022-10-28T00:25:34.979Z,98957.15
2022-10-28T00:28:05.644Z,98967.42
2022-10-28T00:30:36.397Z,98969.52
2022-10-28T00:33:07.016Z,98968.31
2022-10-28T00:35:37.461Z,98962.60
2022-10-28T00:38:07.947Z,98958.98
2022-10-28T00:40:38.558Z,98957.73
2022-10-28T00:43:10.209Z,98953.21
2022-10-28T00:45:40.900Z,98951.15
2022-10-28T00:48:12.035Z,98950.81
2022-10-28T00:50:46.685Z,98952.94
2022-10-28T00:53:20.674Z,98951.72
2022-10-28T00:55:51.686Z,98955.00
2022-10-28T00:58:24.230Z,98957.05
2022-10-28T01:00:54.853Z,98952.61
2022-10-28T01:03:25.967Z,98954.63
2022-10-28T01:05:57.234Z,98957.63
2022-10-28T01:08:27.897Z,98953.48
2022-10-28T01:11:24.514Z,98946.71
2022-10-28T01:14:06.713Z,98940.04
2022-10-28T01:16:42.212Z,98939.36
2022-10-28T01:19:36.157Z,98936.77
2022-10-28T01:22:15.947Z,98941.48
2022-10-28T01:24:59.947Z,98940.84
2022-10-28T01:27:57.090Z,98936.66
2022-10-28T01:30:28.297Z,98935.18
2022-10-28T01:33:05.441Z,98937.92
2022-10-28T01:35:43.865Z,98932.60
2022-10-28T01:38:29.864Z,98933.27
2022-10-28T01:41:08.235Z,98938.77
2022-10-28T01:43:46.239Z,98930.14
2022-10-28T01:46:18.473Z,98928.09
2022-10-28T01:48:52.309Z,98932.23
2022-10-28T01:51:25.862Z,98934.75
2022-10-28T01:53:58.459Z,98930.30
2022-10-28T01:56:31.525Z,98927.45
2022-10-28T01:59:02.740Z,98922.70
2022-10-28T02:01:34.330Z,98923.10
2022-10-28T02:04:04.923Z,98919.73
2022-10-28T02:06:35.949Z,98915.83
2022-10-28T02:09:14.416Z,98913.55
2022-10-28T02:12:01.050Z,98902.97
2022-10-28T02:14:45.340Z,98904.09
2022-10-28T02:17:22.585Z,98905.55
2022-10-28T02:19:55.252Z,98903.85
2022-10-28T02:22:29.928Z,98909.07
2022-10-28T02:25:06.415Z,98905.42
2022-10-28T02:27:41.637Z,98899.70
2022-10-28T02:30:16.700Z,98905.15
2022-10-28T02:32:50.394Z,98909.25
2022-10-28T02:35:24.344Z,98912.81
2022-10-28T02:37:55.752Z,98907.66
2022-10-28T02:40:28.976Z,98899.01
2022-10-28T02:43:00.963Z,98897.21
2022-10-28T02:45:35.365Z,98900.15
2022-10-28T02:48:07.981Z,98901.16
2022-10-28T02:50:41.005Z,98894.52
2022-10-28T02:53:14.783Z,98890.61
2022-10-28T02:55:46.719Z,98885.27
2022-10-28T02:58:17.406Z,98887.07
2022-10-28T03:00:49.727Z,98887.54
2022-10-28T03:03:21.150Z,98887.80
2022-10-28T03:05:51.869Z,98889.96
2022-10-28T03:08:24.735Z,98891.94
2022-10-28T03:10:58.268Z,98885.52
2022-10-28T03:13:29.231Z,98889.92
2022-10-28T03:15:59.880Z,98888.23
2022-10-28T03:18:30.404Z,98890.09
2022-10-28T03:21:00.997Z,98891.30
2022-10-28T03:23:31.660Z,98895.29
2022-10-28T03:26:02.203Z,98891.14
2022-10-28T03:28:32.640Z,98888.25
2022-10-28T03:31:03.239Z,98902.80
2022-10-28T03:33:33.703Z,98912.60
2022-10-28T03:36:04.377Z,98904.98
2022-10-28T03:38:34.959Z,98911.27
2022-10-28T03:41:05.651Z,98903.65
2022-10-28T03:43:36.130Z,98890.17
2022-10-28T03:46:13.980Z,98867.46
2022-10-28T03:48:44.450Z,98860.98
2022-10-28T03:51:14.995Z,98882.77
2022-10-28T03:53:45.620Z,98872.63
2022-10-28T03:56:18.697Z,98858.09
2022-10-28T04:01:26.969Z,98863.24
2022-10-28T04:03:57.748Z,98880.77
2022-10-28T04:06:28.459Z,98897.52
2022-10-28T04:09:05.080Z,98896.89
2022-10-28T04:11:43.027Z,98890.06
2022-10-28T04:14:13.543Z,98875.41
2022-10-28T04:16:49.109Z,98868.66
2022-10-28T04:19:19.556Z,98861.20
2022-10-28T04:21:50.226Z,98867.76
2022-10-28T04:24:28.153Z,98869.05
2022-10-28T04:26:58.601Z,98866.44
2022-10-28T04:29:43.664Z,98861.19
2022-10-28T04:32:14.343Z,98859.48
2022-10-28T04:34:44.787Z,98857.23
2022-10-28T04:37:20.353Z,98857.58
2022-10-28T04:39:51.260Z,98852.89
2022-10-28T04:42:26.894Z,98853.41
2022-10-28T04:44:57.376Z,98848.22
2022-10-28T04:47:28.031Z,98846.69
2022-10-28T04:49:58.493Z,98841.52
2022-10-28T04:52:29.261Z,98840.45
2022-10-28T04:54:59.835Z,98839.84
2022-10-28T04:57:32.409Z,98840.63
2022-10-28T05:00:02.953Z,98834.77
2022-10-28T05:02:33.392Z,98831.81
2022-10-28T05:05:04.537Z,98834.16
2022-10-28T05:07:48.704Z,98837.20
2022-10-28T05:10:19.375Z,98836.77
2022-10-28T05:12:50.992Z,98836.00
2022-10-28T05:15:27.154Z,98834.52
2022-10-28T05:17:57.883Z,98835.89
2022-10-28T05:20:28.618Z,98833.38
2022-10-28T05:23:00.140Z,98833.23
2022-10-28T05:25:30.559Z,98835.04
2022-10-28T05:28:02.087Z,98832.71
2022-10-28T05:30:32.790Z,98830.08
2022-10-28T05:33:04.033Z,98833.66
2022-10-28T05:35:34.470Z,98829.98
2022-10-28T05:38:04.976Z,98826.65
2022-10-28T05:40:35.943Z,98828.20
2022-10-28T05:43:06.446Z,98837.27
2022-10-28T05:45:36.905Z,98833.13
2022-10-28T05:48:08.205Z,98833.89
2022-10-28T05:50:38.665Z,98835.38
2022-10-28T05:53:09.152Z,98837.58
2022-10-28T05:55:42.686Z,98839.86
2022-10-28T05:58:17.073Z,98845.27
2022-10-28T06:00:47.640Z,98840.33
2022-10-28T06:03:18.221Z,98834.45
2022-10-28T06:05:48.684Z,98835.17
2022-10-28T06:08:19.284Z,98840.45
2022-10-28T06:10:52.935Z,98838.22
2022-10-28T06:13:24.078Z,98842.36
2022-10-28T06:15:55.271Z,98847.33
2022-10-28T06:18:25.899Z,98846.36
2022-10-28T06:20:57.773Z,98847.48
2022-10-28T06:23:28.614Z,98850.17
2022-10-28T06:25:59.854Z,98851.29
2022-10-28T06:28:30.986Z,98846.25
2022-10-28T06:31:05.799Z,98845.15
2022-10-28T06:33:39.802Z,98842.91
2022-10-28T06:36:10.852Z,98846.64
2022-10-28T06:38:41.598Z,98851.48
2022-10-28T06:41:12.863Z,98851.45
2022-10-28T06:43:43.655Z,98858.34
2022-10-28T06:46:14.125Z,98861.39
2022-10-28T06:48:46.098Z,98858.35
2022-10-28T06:51:17.260Z,98858.26
2022-10-28T06:53:51.266Z,98862.07
2022-10-28T06:56:21.932Z,98862.91
2022-10-28T06:58:54.041Z,98862.73
2022-10-28T07:01:25.021Z,98866.55
2022-10-28T07:03:55.929Z,98868.10
2022-10-28T07:06:26.511Z,98861.11
2022-10-28T07:08:59.705Z,98862.36
2022-10-28T07:11:35.384Z,98868.56
2022-10-28T07:14:05.900Z,98866.56
2022-10-28T07:16:36.569Z,98869.38
2022-10-28T07:19:07.376Z,98870.25
2022-10-28T07:21:38.471Z,98872.00
2022-10-28T07:24:10.515Z,98872.90
2022-10-28T07:26:41.110Z,98874.33
2022-10-28T07:29:11.773Z,98878.05
2022-10-28T07:31:48.097Z,98882.31
2022-10-28T07:34:25.866Z,98876.59
2022-10-28T07:36:57.993Z,98873.00
2022-10-28T07:39:28.537Z,98875.45
2022-10-28T07:42:00.445Z,98880.80
2022-10-28T07:44:33.736Z,98886.23
2022-10-28T07:47:04.431Z,98885.85
2022-10-28T07:49:35.202Z,98882.98
2022-10-28T07:52:05.881Z,98885.08
2022-10-28T07:54:36.508Z,98882.61
2022-10-28T07:57:07.294Z,98886.23
2022-10-28T07:59:37.900Z,98886.02
2022-10-28T08:02:08.491Z,98887.36
2022-10-28T08:04:39.533Z,98889.79
2022-10-28T08:07:10.201Z,98887.54
2022-10-28T08:09:41.043Z,98889.27
2022-10-28T08:12:13.083Z,98891.38
2022-10-28T08:14:43.887Z,98896.09
2022-10-28T08:17:14.646Z,98897.48
2022-10-28T08:19:45.202Z,98893.20
2022-10-28T08:22:15.722Z,98891.16
2022-10-28T08:24:46.322Z,98891.67
2022-10-28T08:27:16.783Z,98894.73
2022-10-28T08:29:47.391Z,98898.45
2022-10-28T08:32:18.455Z,98894.14
2022-10-28T08:34:49.723Z,98894.78
2022-10-28T08:37:20.333Z,98896.74
2022-10-28T08:39:51.629Z,98901.83
2022-10-28T08:42:33.575Z,98898.77
2022-10-28T08:45:25.643Z,98898.39
2022-10-28T08:48:04.171Z,98892.46
2022-10-28T08:50:44.986Z,98895.33
2022-10-28T08:53:18.101Z,98900.63
2022-10-28T08:55:50.094Z,98895.38
2022-10-28T08:58:23.335Z,98899.36
2022-10-28T09:00:55.574Z,98899.19
2022-10-28T09:03:28.610Z,98897.58
2022-10-28T09:06:03.312Z,98892.81
2022-10-28T09:08:38.118Z,98893.27
2022-10-28T09:11:43.575Z,98892.52
2022-10-28T09:14:22.934Z,98891.34
2022-10-28T09:16:59.688Z,98896.20
2022-10-28T09:19:39.578Z,98893.12
2022-10-28T09:22:24.161Z,98892.23
2022-10-28T09:24:56.770Z,98897.51
2022-10-28T09:27:34.674Z,98900.19
2022-10-28T09:30:19.685Z,98891.85
2022-10-28T09:32:59.794Z,98892.02
2022-10-28T09:35:35.926Z,98895.96
2022-10-28T09:38:15.750Z,98893.45
2022-10-28T09:40:53.176Z,98888.50
2022-10-28T09:43:29.651Z,98887.45
2022-10-28T09:46:03.415Z,98881.58
2022-10-28T09:53:14.676Z,98877.41
2022-10-28T09:55:47.826Z,98873.66
2022-10-28T09:58:22.157Z,98877.50
2022-10-28T10:00:55.280Z,98889.48
2022-10-28T10:03:27.741Z,98884.80
2022-10-28T10:06:00.998Z,98888.91
2022-10-28T10:08:33.727Z,98889.91
2022-10-28T10:11:09.694Z,98893.34
2022-10-28T10:13:43.704Z,98886.52
2022-10-28T10:16:20.401Z,98887.03
2022-10-28T10:18:55.728Z,98886.73
2022-10-28T10:21:44.321Z,98891.44
2022-10-28T10:24:32.756Z,98893.58
2022-10-28T10:27:14.305Z,98889.35
2022-10-28T10:48:14.905Z,98868.88
2022-10-28T10:50:46.756Z,98864.92
2022-10-28T10:53:26.491Z,98856.94
2022-10-28T10:56:00.618Z,98855.02
2022-10-28T10:58:34.456Z,98854.30
2022-10-28T11:01:07.407Z,98851.35
2022-10-28T11:03:50.171Z,98849.80
2022-10-28T11:06:46.322Z,98848.20
2022-10-28T11:09:24.408Z,98845.27
2022-10-28T11:11:57.486Z,98849.98
2022-10-28T11:14:29.498Z,98843.33
2022-10-28T11:17:03.729Z,98838.52
2022-10-28T11:19:35.841Z,98832.65
2022-10-28T11:22:17.118Z,98832.18
2022-10-28T11:25:07.540Z,98831.84
2022-10-28T11:27:48.642Z,98832.98
2022-10-28T11:30:27.159Z,98827.77
2022-10-28T11:33:28.367Z,98825.42
2022-10-28T11:36:02.737Z,98818.73
2022-10-28T11:38:51.296Z,98814.36
2022-10-28T11:41:27.819Z,98808.52
2022-10-28T11:44:05.437Z,98808.46
2022-10-28T11:46:56.630Z,98809.19
2022-10-28T11:50:25.158Z,98802.23
2022-10-28T11:53:46.925Z,98796.52
2022-10-28T11:56:27.257Z,98797.33
2022-10-28T11:59:13.182Z,98799.68
2022-10-28T12:02:06.608Z,98801.48
2022-10-28T12:04:52.132Z,98802.30
2022-10-28T12:07:51.905Z,98801.59
2022-10-28T12:10:37.706Z,98804.73
2022-10-28T12:13:24.910Z,98804.44
2022-10-28T12:15:58.979Z,98796.90
2022-10-28T12:18:34.530Z,98787.60
2022-10-28T12:21:12.823Z,98786.09
2022-10-28T12:23:49.948Z,98783.16
2022-10-28T12:26:21.796Z,98786.15
2022-10-28T12:28:59.345Z,98778.86
2022-10-28T12:31:33.840Z,98773.34
2022-10-28T12:34:10.719Z,98766.60
2022-10-28T12:36:46.274Z,98767.13
2022-10-28T12:39:27.766Z,98767.48
2022-10-28T12:42:04.330Z,98766.30
2022-10-28T12:44:35.496Z,98762.21
2022-10-28T12:47:15.578Z,98760.33
2022-10-28T12:49:58.304Z,98763.30
2022-10-28T12:52:37.425Z,98754.87
2022-10-28T12:55:19.042Z,98757.52
2022-10-28T12:57:53.200Z,98754.56
2022-10-28T13:00:27.074Z,98752.41
2022-10-28T13:03:02.994Z,98757.77
2022-10-28T13:05:38.055Z,98758.98
2022-10-28T13:08:34.011Z,98763.58
2022-10-28T13:11:27.430Z,98770.10
2022-10-28T13:13:58.701Z,98766.91
2022-10-28T13:16:49.248Z,98771.33
2022-10-28T13:19:39.799Z,98766.02
2022-10-28T13:25:05.434Z,98769.81
2022-10-28T13:30:20.149Z,98766.65
2022-10-28T13:33:05.700Z,98771.09
2022-10-28T13:35:36.812Z,98762.27
2022-10-28T13:38:12.207Z,98758.61
2022-10-28T13:41:19.301Z,98756.10
2022-10-28T13:44:22.581Z,98756.75
2022-10-28T13:47:27.059Z,98757.19
2022-10-28T13:50:24.162Z,98757.51
2022-10-28T13:53:43.439Z,98753.32
2022-10-28T13:56:46.754Z,98745.73
2022-10-28T13:59:43.862Z,98744.45
2022-10-28T14:02:35.958Z,98748.73
2022-10-28T14:05:08.789Z,98744.23
2022-10-28T14:07:38.208Z,98737.13
2022-10-28T14:10:25.592Z,98742.52
2022-10-28T14:12:58.629Z,98744.64
2022-10-28T14:15:31.760Z,98747.51
2022-10-28T14:18:16.175Z,98752.04
2022-10-28T14:21:01.672Z,98754.09
2022-10-28T14:24:13.550Z,98754.17
2022-10-28T14:27:25.910Z,98753.27
2022-10-28T14:30:17.210Z,98750.31
2022-10-28T14:33:00.558Z,98748.36
2022-10-28T14:35:38.928Z,98750.23
2022-10-28T14:38:42.120Z,98755.25
2022-10-28T14:41:26.848Z,98753.37
2022-10-28T14:44:04.927Z,98752.09
2022-10-28T14:46:46.500Z,98755.82
2022-10-28T14:49:25.141Z,98759.09
2022-10-28T14:51:56.515Z,98759.30
2022-10-28T14:54:36.590Z,98756.17
2022-10-28T14:57:11.783Z,98756.46
2022-10-28T14:59:47.788Z,98759.45
2022-10-28T15:02:19.687Z,98758.32
2022-10-28T15:05:00.614Z,98761.32
2022-10-28T15:07:37.895Z,98761.30
2022-10-28T15:10:18.322Z,98765.46
2022-10-28T15:12:58.727Z,98762.41
2022-10-28T15:22:05.179Z,98762.98
2022-10-28T15:55:02.862Z,98766.35
2022-10-28T15:57:39.910Z,98762.19
2022-10-28T16:00:58.060Z,98764.21
2022-10-28T16:03:59.821Z,98770.65
2022-10-28T16:06:44.203Z,98774.02
2022-10-28T16:09:21.473Z,98774.73
2022-10-28T16:11:57.553Z,98781.70
2022-10-28T16:35:05.734Z,98796.92
2022-10-28T16:37:41.831Z,98798.64
2022-10-28T16:40:37.725Z,98795.88
2022-10-28T16:43:07.215Z,98795.80
2022-10-28T16:45:37.845Z,98797.17
2022-10-28T16:48:13.880Z,98794.77
2022-10-28T16:50:46.190Z,98796.61
2022-10-28T16:53:17.453Z,98803.51
2022-10-28T16:55:48.068Z,98802.91
2022-10-28T16:58:21.886Z,98804.86
2022-10-28T17:00:55.428Z,98809.93
2022-10-28T17:03:26.048Z,98807.94
2022-10-28T17:06:04.933Z,98808.54
2022-10-28T17:11:28.907Z,98804.27
2022-10-28T17:13:59.503Z,98803.91
2022-10-28T17:16:30.155Z,98810.80
2022-10-28T17:19:00.767Z,98808.08
2022-10-28T17:21:31.395Z,98809.53
2022-10-28T17:24:02.045Z,98808.60
2022-10-28T17:26:32.874Z,98811.00
2022-10-28T17:29:06.509Z,98816.54
2022-10-28T17:31:40.890Z,98824.95
2022-10-28T17:34:15.220Z,98832.20
2022-10-28T17:36:46.299Z,98839.95
2022-10-28T17:39:20.721Z,98837.57
2022-10-28T17:41:54.041Z,98838.73
2022-10-28T17:44:25.394Z,98840.41
2022-10-28T17:46:56.102Z,98845.59
2022-10-28T18:06:33.021Z,98853.73
2022-10-28T18:33:37.087Z,98860.77
2022-10-28T18:36:49.726Z,98859.46
2022-10-28T18:39:20.589Z,98861.18
2022-10-28T18:41:58.700Z,98857.19
2022-10-28T18:57:04.475Z,98853.35
2022-10-28T19:00:05.116Z,98851.88
2022-10-28T19:02:47.560Z,98855.96
2022-10-28T19:05:26.569Z,98854.36
2022-10-28T19:07:57.783Z,98852.96
2022-10-28T19:10:28.492Z,98852.58
2022-10-28T19:13:05.597Z,98855.23
2022-10-28T19:15:42.065Z,98852.44
2022-10-28T19:18:14.223Z,98852.77
2022-10-28T19:20:47.551Z,98859.88
2022-10-28T19:23:18.136Z,98862.27
2022-10-28T19:25:57.577Z,98860.08
2022-10-28T19:28:32.480Z,98862.95
2022-10-28T19:33:55.991Z,98860.07
2022-10-28T19:36:27.860Z,98861.46
2022-10-28T19:38:59.109Z,98864.75
2022-10-28T19:41:30.997Z,98869.11
2022-10-28T19:44:02.653Z,98871.94
2022-10-28T19:46:34.954Z,98871.82
2022-10-28T19:49:09.495Z,98871.59
2022-10-28T19:51:42.232Z,98871.15
2022-10-28T19:54:12.426Z,98871.38
2022-10-28T19:56:50.361Z,98871.58
2022-10-28T19:59:39.926Z,98871.98
2022-10-28T20:02:11.663Z,98873.31
2022-10-28T20:04:42.363Z,98872.60
2022-10-28T20:07:13.204Z,98875.63
2022-10-28T20:09:44.778Z,98880.95
2022-10-28T20:12:18.091Z,98879.58
2022-10-28T20:14:48.905Z,98886.05
2022-10-28T20:17:21.868Z,98888.39
2022-10-28T20:19:52.480Z,98887.27
2022-10-28T20:22:22.927Z,98885.84
2022-10-28T20:24:53.574Z,98891.57
2022-10-28T20:27:24.338Z,98893.28
2022-10-28T20:29:57.902Z,98900.17
2022-10-28T20:32:28.911Z,98896.49
2022-10-28T20:35:02.215Z,98904.02
2022-10-28T20:37:32.724Z,98905.75
2022-10-28T20:40:07.253Z,98901.67
2022-10-28T20:42:38.322Z,98904.25
2022-10-28T20:45:10.315Z,98905.15
2022-10-28T20:47:40.955Z,98902.38
2022-10-28T20:50:13.251Z,98899.67
2022-10-28T20:52:45.021Z,98896.70
2022-10-28T20:55:18.544Z,98903.09
2022-10-28T20:57:49.205Z,98905.16
2022-10-28T21:00:20.424Z,98907.69
2022-10-28T21:02:51.044Z,98905.64
2022-10-28T21:05:21.842Z,98906.58
2022-10-28T21:07:52.550Z,98902.42
2022-10-28T21:10:23.751Z,98905.07
2022-10-28T21:12:54.251Z,98901.62
2022-10-28T21:15:27.041Z,98899.33
2022-10-28T21:18:01.537Z,98900.62
2022-10-28T21:20:32.669Z,98898.73
2022-10-28T21:23:03.211Z,98899.27
2022-10-28T21:25:37.076Z,98898.73
2022-10-28T21:28:07.828Z,98900.93
2022-10-28T21:30:38.385Z,98905.50
2022-10-28T21:33:11.295Z,98902.95
2022-10-28T21:35:42.069Z,98903.94
2022-10-28T21:38:15.299Z,98908.95
2022-10-28T21:40:45.920Z,98917.98
2022-10-28T21:43:16.594Z,98925.15
2022-10-28T21:45:47.056Z,98928.65
2022-10-28T21:48:17.464Z,98929.72
2022-10-28T21:50:53.670Z,98924.85
2022-10-28T21:53:24.422Z,98926.13
2022-10-28T21:56:02.586Z,98922.12
2022-10-28T21:58:33.662Z,98922.82
2022-10-28T22:01:09.150Z,98926.27
2022-10-28T22:03:40.319Z,98924.79
2022-10-28T22:06:11.336Z,98925.21
2022-10-28T22:08:41.927Z,98925.66
2022-10-28T22:11:16.065Z,98931.54
2022-10-28T22:13:46.690Z,98933.41
2022-10-28T22:16:18.833Z,98931.27
2022-10-28T22:18:49.323Z,98927.98
2022-10-28T22:21:21.435Z,98925.58
2022-10-28T22:23:52.573Z,98920.90
2022-10-28T22:26:24.848Z,98916.77
2022-10-28T22:28:55.861Z,98922.77
2022-10-28T22:31:28.484Z,98924.73
2022-10-28T22:40:03.745Z,98913.69
2022-10-28T22:42:34.477Z,98911.23
2022-10-28T22:45:05.292Z,98908.94
2022-10-28T22:47:35.821Z,98908.77
2022-10-28T22:50:06.962Z,98908.62
2022-10-28T22:52:37.583Z,98905.33
2022-10-28T22:55:09.273Z,98905.39
2022-10-28T22:57:39.739Z,98909.20
2022-10-28T23:00:12.628Z,98906.58
2022-10-28T23:02:43.301Z,98904.27
2022-10-28T23:05:14.052Z,98899.54
2022-10-28T23:07:44.658Z,98901.23
2022-10-28T23:10:15.372Z,98904.33
2022-10-28T23:12:45.973Z,98909.34
2022-10-28T23:15:16.559Z,98913.02
2022-10-28T23:17:51.785Z,98907.10
2022-10-28T23:20:23.420Z,98904.42
2022-10-28T23:22:59.934Z,98902.94
2022-10-28T23:25:30.463Z,98901.73
2022-10-28T23:28:01.003Z,98909.81
2022-10-28T23:30:31.565Z,98914.35
2022-10-28T23:33:02.095Z,98913.78
2022-10-28T23:35:32.538Z,98918.11
2022-10-28T23:38:03.069Z,98917.39
2022-10-28T23:40:33.578Z,98917.52
2022-10-28T23:43:04.169Z,98924.48
2022-10-28T23:45:34.701Z,98928.04
2022-10-28T23:48:05.524Z,98918.85
2022-10-28T23:50:36.620Z,98915.23
2022-10-28T23:53:07.132Z,98913.10
2022-10-28T23:55:37.706Z,98906.33
2022-10-28T23:58:08.439Z,98905.79
